createdAt,value
2023-03-31T00:01:42.014Z,6.50
2023-03-31T00:04:13.745Z,4.00
2023-03-31T00:06:42.620Z,7.30
2023-03-31T00:09:13.116Z,13.30
2023-03-31T00:11:41.356Z,7.50
2023-03-31T00:14:09.539Z,8.00
2023-03-31T00:16:38.984Z,7.40
2023-03-31T00:19:09.974Z,7.10
2023-03-31T00:21:38.506Z,7.30
2023-03-31T00:24:07.435Z,6.80
2023-03-31T00:26:36.488Z,7.10
2023-03-31T00:29:07.086Z,5.90
2023-03-31T00:31:36.265Z,5.10
2023-03-31T00:34:05.350Z,6.80
2023-03-31T00:36:37.105Z,5.10
2023-03-31T00:39:10.390Z,7.40
2023-03-31T00:41:39.449Z,6.30
2023-03-31T00:44:27.949Z,5.80
2023-03-31T00:46:56.794Z,8.30
2023-03-31T00:49:36.428Z,8.80
2023-03-31T00:52:23.095Z,5.30
2023-03-31T00:54:55.636Z,10.30
2023-03-31T00:57:24.008Z,10.50
2023-03-31T00:59:54.973Z,10.50
2023-03-31T01:02:25.687Z,7.10
2023-03-31T01:04:57.664Z,4.60
2023-03-31T01:07:34.431Z,8.60
2023-03-31T01:10:03.842Z,5.70
2023-03-31T01:12:41.201Z,9.30
2023-03-31T01:15:10.107Z,9.00
2023-03-31T01:17:40.842Z,6.20
2023-03-31T01:20:30.132Z,7.90
2023-03-31T01:23:21.382Z,7.30
2023-03-31T01:25:56.524Z,7.80
2023-03-31T01:28:36.792Z,7.50
2023-03-31T01:31:20.764Z,8.20
2023-03-31T01:34:12.176Z,7.50
2023-03-31T01:37:01.672Z,11.50
2023-03-31T01:39:30.989Z,7.00
2023-03-31T01:42:23.147Z,8.50
2023-03-31T01:45:16.963Z,9.60
2023-03-31T01:47:50.185Z,9.10
2023-03-31T01:50:26.842Z,5.50
2023-03-31T01:53:14.679Z,8.70
2023-03-31T01:56:07.402Z,5.70
2023-03-31T01:58:58.116Z,10.00
2023-03-31T02:01:31.920Z,11.10
2023-03-31T02:04:40.272Z,7.60
2023-03-31T02:07:21.716Z,9.00
2023-03-31T02:09:52.196Z,10.30
2023-03-31T02:12:20.720Z,12.90
2023-03-31T02:14:51.915Z,13.00
2023-03-31T02:17:40.602Z,9.10
2023-03-31T02:20:15.571Z,12.70
2023-03-31T02:22:47.281Z,12.10
2023-03-31T02:25:17.950Z,10.30
2023-03-31T02:27:50.286Z,8.90
2023-03-31T02:30:19.241Z,8.60
2023-03-31T02:32:58.283Z,7.60
2023-03-31T02:35:27.128Z,13.60
2023-03-31T02:37:59.728Z,11.90
2023-03-31T02:40:31.051Z,15.70
2023-03-31T02:43:00.850Z,6.50
2023-03-31T02:45:44.506Z,11.40
2023-03-31T02:48:34.741Z,13.80
2023-03-31T02:51:10.996Z,5.90
2023-03-31T02:53:54.621Z,8.90
2023-03-31T02:56:45.649Z,8.60
2023-03-31T02:59:29.990Z,7.10
2023-03-31T03:02:11.923Z,14.00
2023-03-31T03:04:50.000Z,12.60
2023-03-31T03:07:26.850Z,10.70
2023-03-31T03:10:11.276Z,8.40
2023-03-31T03:12:59.581Z,11.80
2023-03-31T03:16:01.395Z,14.70
2023-03-31T03:18:32.439Z,13.70
2023-03-31T03:21:01.264Z,12.40
2023-03-31T03:23:30.104Z,14.80
2023-03-31T03:25:58.791Z,15.80
2023-03-31T03:28:28.294Z,8.90
2023-03-31T03:30:57.169Z,10.70
2023-03-31T03:33:26.569Z,10.40
2023-03-31T03:35:55.228Z,11.10
2023-03-31T03:38:23.912Z,9.10
2023-03-31T03:40:55.620Z,5.10
2023-03-31T03:43:24.269Z,7.30
2023-03-31T03:45:53.104Z,6.60
2023-03-31T03:48:21.927Z,9.20
2023-03-31T03:50:50.965Z,11.40
2023-03-31T03:53:20.407Z,10.30
2023-03-31T03:55:52.490Z,8.20
2023-03-31T03:58:21.537Z,7.60
2023-03-31T04:00:50.568Z,9.00
2023-03-31T04:03:20.728Z,5.20
2023-03-31T04:05:50.209Z,6.30
2023-03-31T04:08:21.723Z,7.30
2023-03-31T04:10:51.952Z,6.70
2023-03-31T04:13:21.752Z,6.60
2023-03-31T04:15:50.550Z,7.50
2023-03-31T04:18:23.525Z,5.70
2023-03-31T04:21:04.348Z,7.80
2023-03-31T04:23:47.037Z,5.50
2023-03-31T04:26:17.675Z,3.40
2023-03-31T04:28:50.935Z,12.60
2023-03-31T04:31:25.673Z,6.80
2023-03-31T04:33:54.564Z,5.00
2023-03-31T04:36:23.936Z,5.00
2023-03-31T04:38:55.133Z,8.00
2023-03-31T04:41:27.750Z,3.60
2023-03-31T04:43:56.151Z,5.10
2023-03-31T04:46:24.398Z,6.90
2023-03-31T04:48:52.775Z,6.10
2023-03-31T04:51:21.634Z,4.70
2023-03-31T04:53:52.729Z,9.30
2023-03-31T04:56:22.991Z,5.00
2023-03-31T04:58:51.977Z,6.70
2023-03-31T05:01:21.090Z,7.30
2023-03-31T05:03:52.131Z,5.20
2023-03-31T05:06:20.850Z,5.20
2023-03-31T05:08:49.751Z,5.60
2023-03-31T05:11:18.313Z,5.70
2023-03-31T05:13:47.460Z,7.60
2023-03-31T05:16:16.562Z,5.00
2023-03-31T05:18:46.590Z,6.50
2023-03-31T05:21:19.889Z,6.80
2023-03-31T05:23:50.024Z,5.10
2023-03-31T05:26:30.448Z,6.80
2023-03-31T05:29:03.172Z,5.80
2023-03-31T05:31:32.045Z,6.40
2023-03-31T05:34:01.103Z,4.20
2023-03-31T05:36:32.465Z,5.50
2023-03-31T05:39:01.249Z,6.60
2023-03-31T05:41:29.945Z,6.10
2023-03-31T05:43:58.937Z,4.00
2023-03-31T05:46:28.312Z,4.80
2023-03-31T05:48:56.929Z,6.10
2023-03-31T05:51:36.050Z,4.90
2023-03-31T05:54:06.514Z,4.20
2023-03-31T05:56:37.367Z,3.50
2023-03-31T05:59:06.433Z,6.80
2023-03-31T06:01:39.331Z,5.70
2023-03-31T06:04:08.557Z,5.50
2023-03-31T06:06:38.283Z,6.50
2023-03-31T06:09:07.814Z,6.40
2023-03-31T06:11:39.138Z,5.70
2023-03-31T06:14:08.155Z,4.70
2023-03-31T06:16:36.752Z,6.80
2023-03-31T06:19:06.094Z,6.30
2023-03-31T06:21:34.762Z,5.40
2023-03-31T06:24:03.414Z,5.70
2023-03-31T06:26:32.482Z,3.80
2023-03-31T06:29:02.964Z,6.30
2023-03-31T06:31:32.455Z,5.00
2023-03-31T06:34:01.441Z,8.40
2023-03-31T06:36:30.392Z,4.20
2023-03-31T06:38:59.113Z,3.20
2023-03-31T06:41:27.682Z,4.50
2023-03-31T06:43:56.391Z,5.30
2023-03-31T06:46:25.032Z,3.10
2023-03-31T06:48:54.607Z,3.90
2023-03-31T06:51:23.540Z,5.10
2023-03-31T06:53:52.485Z,4.40
2023-03-31T06:56:22.200Z,5.30
2023-03-31T06:58:50.985Z,7.00
2023-03-31T07:01:22.700Z,5.30
2023-03-31T07:03:52.617Z,4.90
2023-03-31T07:06:21.728Z,4.50
2023-03-31T07:08:50.145Z,3.60
2023-03-31T07:11:21.032Z,7.40
2023-03-31T07:13:50.261Z,6.50
2023-03-31T07:16:19.163Z,4.30
2023-03-31T07:18:50.788Z,5.70
2023-03-31T07:21:19.695Z,4.30
2023-03-31T07:23:48.579Z,3.40
2023-03-31T07:26:18.272Z,6.70
2023-03-31T07:28:46.985Z,3.50
2023-03-31T07:31:22.211Z,5.50
2023-03-31T07:33:51.309Z,4.20
2023-03-31T07:36:20.099Z,8.10
2023-03-31T07:38:49.986Z,9.90
2023-03-31T07:41:20.503Z,5.10
2023-03-31T07:43:49.233Z,3.80
2023-03-31T07:46:23.584Z,4.60
2023-03-31T07:48:52.659Z,3.40
2023-03-31T07:51:22.996Z,4.50
2023-03-31T07:53:52.919Z,6.20
2023-03-31T07:56:24.471Z,6.70
2023-03-31T07:58:57.729Z,4.80
2023-03-31T08:01:29.159Z,6.70
2023-03-31T08:03:59.380Z,5.00
2023-03-31T08:06:29.236Z,4.10
2023-03-31T08:08:57.851Z,6.80
2023-03-31T08:11:26.434Z,3.70
2023-03-31T08:13:55.952Z,4.10
2023-03-31T08:16:24.494Z,5.40
2023-03-31T08:18:54.464Z,4.80
2023-03-31T08:21:24.586Z,4.50
2023-03-31T08:24:02.135Z,3.20
2023-03-31T08:26:33.152Z,4.20
2023-03-31T08:29:01.922Z,4.10
2023-03-31T08:31:31.517Z,5.90
2023-03-31T08:34:00.235Z,6.50
2023-03-31T08:36:30.151Z,4.00
2023-03-31T08:38:58.683Z,5.50
2023-03-31T08:41:39.499Z,6.40
2023-03-31T08:44:16.629Z,8.70
2023-03-31T08:46:45.650Z,4.90
2023-03-31T08:49:16.781Z,4.80
2023-03-31T08:51:51.540Z,5.00
2023-03-31T08:54:32.801Z,4.00
2023-03-31T08:57:05.123Z,5.70
2023-03-31T08:59:34.472Z,6.70
2023-03-31T09:02:25.107Z,8.60
2023-03-31T09:05:12.958Z,6.60
2023-03-31T09:08:05.027Z,4.70
2023-03-31T09:13:12.422Z,8.70
2023-03-31T09:15:54.637Z,3.90
2023-03-31T09:18:33.101Z,7.10
2023-03-31T09:21:20.859Z,5.90
2023-03-31T09:24:00.159Z,6.80
2023-03-31T09:26:39.633Z,11.80
2023-03-31T09:29:35.363Z,11.50
2023-03-31T09:32:18.896Z,14.30
2023-03-31T09:34:50.495Z,6.30
2023-03-31T09:37:19.093Z,6.10
2023-03-31T09:39:47.876Z,6.90
2023-03-31T09:42:17.016Z,7.60
2023-03-31T09:44:46.765Z,7.80
2023-03-31T09:47:22.141Z,7.10
2023-03-31T09:49:53.708Z,5.30
2023-03-31T09:52:32.871Z,6.70
2023-03-31T09:55:40.222Z,5.70
2023-03-31T09:58:13.196Z,8.40
2023-03-31T10:00:44.783Z,4.90
2023-03-31T10:03:14.400Z,5.50
2023-03-31T10:05:51.225Z,8.00
2023-03-31T10:08:32.775Z,7.10
2023-03-31T10:11:09.695Z,10.40
2023-03-31T10:13:47.215Z,13.40
2023-03-31T10:16:49.231Z,16.20
2023-03-31T10:19:26.512Z,28.10
2023-03-31T10:22:26.609Z,9.10
2023-03-31T10:24:55.892Z,9.90
2023-03-31T10:27:30.056Z,18.60
2023-03-31T10:30:01.136Z,9.10
2023-03-31T10:32:34.626Z,11.80
2023-03-31T10:35:06.777Z,10.70
2023-03-31T10:37:35.902Z,14.10
2023-03-31T10:40:13.121Z,12.30
2023-03-31T10:42:44.942Z,9.00
2023-03-31T10:45:36.509Z,7.40
2023-03-31T10:48:09.823Z,8.80
2023-03-31T10:50:39.266Z,8.30
2023-03-31T10:53:13.668Z,4.60
2023-03-31T10:55:51.665Z,5.30
2023-03-31T10:58:33.798Z,5.70
2023-03-31T11:01:25.175Z,8.90
2023-03-31T11:04:17.004Z,5.20
2023-03-31T11:06:57.531Z,6.10
2023-03-31T11:09:44.314Z,7.20
2023-03-31T11:12:25.143Z,8.30
2023-03-31T11:15:03.906Z,6.20
2023-03-31T11:17:51.323Z,7.60
2023-03-31T11:20:31.636Z,4.90
2023-03-31T11:23:19.046Z,6.10
2023-03-31T11:25:55.409Z,5.60
2023-03-31T11:28:54.239Z,7.80
2023-03-31T11:31:44.781Z,7.20
2023-03-31T11:34:36.098Z,6.00
2023-03-31T11:37:35.768Z,13.00
2023-03-31T11:40:20.080Z,8.40
2023-03-31T11:42:52.593Z,5.20
2023-03-31T11:45:26.691Z,10.40
2023-03-31T11:47:58.025Z,14.80
2023-03-31T11:50:32.395Z,12.00
2023-03-31T11:53:21.661Z,14.40
2023-03-31T11:55:54.238Z,14.60
2023-03-31T11:58:27.262Z,14.80
2023-03-31T12:01:05.633Z,18.60
2023-03-31T12:03:44.256Z,12.00
2023-03-31T12:06:19.637Z,10.20
2023-03-31T12:09:25.249Z,17.40
2023-03-31T12:11:57.919Z,5.80
2023-03-31T12:14:35.483Z,6.20
2023-03-31T12:17:13.729Z,8.90
2023-03-31T12:19:45.333Z,10.10
2023-03-31T12:22:44.068Z,6.80
2023-03-31T12:25:15.183Z,7.50
2023-03-31T12:27:50.719Z,6.80
2023-03-31T12:30:31.320Z,6.50
2023-03-31T12:33:43.964Z,4.10
2023-03-31T12:36:22.653Z,5.70
2023-03-31T12:38:57.497Z,3.30
2023-03-31T12:42:01.265Z,3.00
2023-03-31T12:44:42.242Z,4.20
2023-03-31T12:47:33.777Z,5.60
2023-03-31T12:50:21.760Z,3.10
2023-03-31T12:53:10.494Z,4.70
2023-03-31T12:55:48.535Z,2.40
2023-03-31T12:58:24.822Z,3.90
2023-03-31T13:01:16.574Z,4.00
2023-03-31T13:03:53.649Z,3.10
2023-03-31T13:06:28.621Z,2.80
2023-03-31T13:09:06.165Z,3.40
2023-03-31T13:11:38.993Z,2.50
2023-03-31T13:14:14.606Z,5.30
2023-03-31T13:16:46.750Z,3.70
2023-03-31T13:19:35.390Z,2.80
2023-03-31T13:22:05.140Z,4.10
2023-03-31T13:24:35.125Z,3.60
2023-03-31T13:27:34.131Z,5.20
2023-03-31T13:30:03.814Z,3.70
2023-03-31T13:32:34.364Z,6.60
2023-03-31T13:35:03.955Z,3.70
2023-03-31T13:38:02.508Z,3.90
2023-03-31T13:40:49.269Z,3.80
2023-03-31T13:43:36.582Z,4.80
2023-03-31T13:46:25.081Z,9.60
2023-03-31T13:49:21.942Z,6.20
2023-03-31T13:51:58.856Z,6.70
2023-03-31T13:54:45.871Z,4.00
2023-03-31T13:57:32.955Z,6.00
2023-03-31T14:00:29.654Z,8.30
2023-03-31T14:03:21.839Z,7.70
2023-03-31T14:05:56.322Z,4.50
2023-03-31T14:08:54.253Z,5.60
2023-03-31T14:11:28.457Z,6.30
2023-03-31T14:14:00.353Z,5.40
2023-03-31T14:16:29.050Z,6.10
2023-03-31T14:19:28.318Z,5.70
2023-03-31T14:22:37.533Z,8.00
2023-03-31T14:25:28.450Z,8.70
2023-03-31T14:28:05.326Z,5.50
2023-03-31T14:30:43.327Z,4.70
2023-03-31T14:33:13.164Z,12.70
2023-03-31T14:35:47.096Z,7.50
2023-03-31T14:38:22.579Z,4.80
2023-03-31T14:40:54.244Z,7.40
2023-03-31T14:43:37.324Z,13.60
2023-03-31T14:46:09.968Z,11.70
2023-03-31T14:48:45.518Z,8.70
2023-03-31T14:51:19.502Z,11.50
2023-03-31T14:53:48.263Z,12.50
2023-03-31T14:56:20.546Z,10.70
2023-03-31T14:58:51.920Z,8.80
2023-03-31T15:01:24.478Z,9.40
2023-03-31T15:03:54.681Z,8.00
2023-03-31T15:06:26.423Z,11.40
2023-03-31T15:08:56.879Z,10.20
2023-03-31T15:11:25.803Z,8.70
2023-03-31T15:14:04.460Z,9.60
2023-03-31T15:16:44.050Z,15.30
2023-03-31T15:19:21.835Z,13.80
2023-03-31T15:22:02.672Z,12.80
2023-03-31T15:24:31.986Z,28.00
2023-03-31T15:27:18.083Z,13.80
2023-03-31T15:29:53.733Z,64.40
2023-03-31T15:32:27.803Z,42.60
2023-03-31T15:35:02.499Z,46.80
2023-03-31T15:37:43.887Z,44.10
2023-03-31T15:40:24.156Z,31.80
2023-03-31T15:45:51.500Z,17.60
2023-03-31T15:48:30.502Z,19.20
2023-03-31T15:51:01.263Z,24.60
2023-03-31T15:53:38.438Z,14.20
2023-03-31T15:56:07.725Z,15.40
2023-03-31T15:59:03.647Z,46.80
2023-03-31T16:01:34.705Z,33.20
2023-03-31T16:04:09.200Z,38.70
2023-03-31T16:06:38.410Z,25.70
2023-03-31T16:09:13.518Z,25.30
2023-03-31T16:11:50.797Z,37.50
2023-03-31T16:14:30.239Z,24.60
2023-03-31T16:17:07.328Z,17.30
2023-03-31T16:20:00.574Z,20.00
2023-03-31T16:22:35.663Z,14.50
2023-03-31T16:25:09.506Z,5.40
2023-03-31T16:27:41.227Z,10.50
2023-03-31T16:30:14.385Z,6.70
2023-03-31T16:33:03.245Z,12.80
2023-03-31T16:35:34.435Z,7.10
2023-03-31T16:38:04.148Z,8.80
2023-03-31T16:40:40.304Z,5.10
2023-03-31T16:43:17.329Z,9.00
2023-03-31T16:45:51.630Z,7.00
2023-03-31T16:48:23.059Z,10.40
2023-03-31T16:51:01.636Z,8.00
2023-03-31T16:53:32.129Z,7.00
2023-03-31T16:56:00.808Z,5.50
2023-03-31T16:58:30.451Z,11.90
2023-03-31T17:01:02.224Z,13.70
2023-03-31T17:03:34.620Z,9.50
2023-03-31T17:06:09.462Z,10.10
2023-03-31T17:08:38.522Z,13.40
2023-03-31T17:11:11.886Z,12.10
2023-03-31T17:16:17.323Z,7.20
2023-03-31T17:18:53.747Z,10.10
2023-03-31T17:21:23.851Z,9.10
2023-03-31T17:23:55.244Z,12.10
2023-03-31T17:26:24.015Z,8.20
2023-03-31T17:28:53.312Z,8.90
2023-03-31T17:31:21.995Z,11.00
2023-03-31T17:33:50.851Z,3.30
2023-03-31T17:36:19.932Z,6.60
2023-03-31T17:38:49.583Z,9.10
2023-03-31T17:41:18.404Z,7.50
2023-03-31T17:43:50.437Z,15.80
2023-03-31T17:46:19.857Z,10.20
2023-03-31T17:48:48.972Z,9.10
2023-03-31T17:51:18.895Z,19.50
2023-03-31T17:53:57.744Z,6.10
2023-03-31T17:56:28.721Z,16.00
2023-03-31T17:58:57.922Z,14.10
2023-03-31T18:01:27.359Z,13.40
2023-03-31T18:03:58.031Z,9.50
2023-03-31T18:06:28.019Z,11.20
2023-03-31T18:08:57.317Z,12.10
2023-03-31T18:11:27.040Z,9.80
2023-03-31T18:14:02.152Z,14.90
2023-03-31T18:16:31.728Z,12.90
2023-03-31T18:19:00.976Z,11.80
2023-03-31T18:21:33.195Z,11.80
2023-03-31T18:24:02.991Z,5.30
2023-03-31T18:26:31.987Z,8.80
2023-03-31T18:29:05.421Z,15.20
2023-03-31T18:31:34.586Z,14.20
2023-03-31T18:34:03.102Z,13.90
2023-03-31T18:36:33.162Z,12.90
2023-03-31T18:39:02.052Z,20.30
2023-03-31T18:41:32.576Z,10.40
2023-03-31T18:44:01.837Z,5.10
2023-03-31T18:46:31.029Z,12.90
2023-03-31T18:48:59.804Z,14.40
2023-03-31T18:51:28.656Z,9.10
2023-03-31T18:53:57.627Z,17.70
2023-03-31T18:56:26.649Z,13.10
2023-03-31T18:58:55.924Z,10.80
2023-03-31T19:01:24.574Z,15.00
2023-03-31T19:03:54.137Z,11.90
2023-03-31T19:06:24.445Z,11.00
2023-03-31T19:08:55.651Z,10.90
2023-03-31T19:11:24.215Z,5.30
2023-03-31T19:13:55.583Z,14.60
2023-03-31T19:16:45.161Z,8.20
2023-03-31T19:19:13.723Z,9.10
2023-03-31T19:21:43.687Z,10.80
2023-03-31T19:24:12.460Z,14.20
2023-03-31T19:26:42.214Z,13.10
2023-03-31T19:29:11.204Z,15.60
2023-03-31T19:31:42.452Z,10.50
2023-03-31T19:34:11.993Z,10.50
2023-03-31T19:36:40.539Z,16.60
2023-03-31T19:39:09.536Z,11.30
2023-03-31T19:41:39.299Z,8.90
2023-03-31T19:44:07.990Z,15.90
2023-03-31T19:46:38.118Z,17.80
2023-03-31T19:49:07.447Z,12.30
2023-03-31T19:51:38.570Z,11.10
2023-03-31T19:54:07.914Z,13.20
2023-03-31T19:56:39.154Z,14.00
2023-03-31T19:59:08.191Z,13.80
2023-03-31T20:01:37.682Z,13.10
2023-03-31T20:04:07.999Z,8.00
2023-03-31T20:06:37.173Z,17.20
2023-03-31T20:09:06.569Z,25.10
2023-03-31T20:11:35.584Z,26.70
2023-03-31T20:14:04.698Z,13.30
2023-03-31T20:16:34.526Z,13.80
2023-03-31T20:19:05.228Z,20.80
2023-03-31T20:21:35.864Z,14.40
2023-03-31T20:24:06.946Z,7.20
2023-03-31T20:26:36.613Z,17.50
2023-03-31T20:29:05.125Z,24.10
2023-03-31T20:31:39.551Z,18.00
2023-03-31T20:34:12.831Z,12.90
2023-03-31T20:36:42.208Z,17.30
2023-03-31T20:39:12.015Z,17.20
2023-03-31T20:41:40.512Z,21.20
2023-03-31T20:44:13.433Z,16.80
2023-03-31T20:46:43.838Z,19.00
2023-03-31T20:49:13.607Z,31.90
2023-03-31T20:51:42.935Z,13.40
2023-03-31T20:54:12.166Z,29.10
2023-03-31T20:56:41.666Z,13.80
2023-03-31T20:59:12.432Z,14.40
2023-03-31T21:01:42.777Z,13.30
2023-03-31T21:04:13.273Z,8.80
2023-03-31T21:06:46.234Z,15.00
2023-03-31T21:09:15.651Z,9.80
2023-03-31T21:11:45.038Z,11.70
2023-03-31T21:14:14.585Z,11.70
2023-03-31T21:16:43.310Z,13.00
2023-03-31T21:19:12.107Z,11.10
2023-03-31T21:21:43.655Z,15.60
2023-03-31T21:24:13.236Z,13.10
2023-03-31T21:26:42.173Z,17.10
2023-03-31T21:29:12.759Z,12.10
2023-03-31T21:31:42.306Z,20.70
2023-03-31T21:34:12.452Z,14.00
2023-03-31T21:36:41.180Z,15.40
2023-03-31T21:39:10.133Z,14.70
2023-03-31T21:41:40.825Z,14.20
2023-03-31T21:44:10.245Z,22.20
2023-03-31T21:46:39.510Z,16.00
2023-03-31T21:49:08.324Z,8.80
2023-03-31T21:51:37.210Z,8.50
2023-03-31T21:54:06.905Z,15.50
2023-03-31T21:56:35.866Z,16.80
2023-03-31T21:59:04.637Z,9.10
2023-03-31T22:01:34.055Z,13.70
2023-03-31T22:04:03.088Z,17.50
2023-03-31T22:06:31.897Z,15.60
2023-03-31T22:09:00.739Z,12.40
2023-03-31T22:11:31.824Z,13.60
2023-03-31T22:14:00.696Z,14.50
2023-03-31T22:16:29.403Z,16.60
2023-03-31T22:19:00.191Z,12.50
2023-03-31T22:21:43.835Z,17.30
2023-03-31T22:24:13.811Z,9.40
2023-03-31T22:26:43.216Z,9.70
2023-03-31T22:29:15.159Z,12.00
2023-03-31T22:31:44.020Z,17.90
2023-03-31T22:34:13.898Z,14.20
2023-03-31T22:36:43.717Z,10.40
2023-03-31T22:39:13.573Z,11.40
2023-03-31T22:41:42.750Z,18.00
2023-03-31T22:44:11.951Z,9.70
2023-03-31T22:46:41.226Z,10.40
2023-03-31T22:49:09.812Z,15.80
2023-03-31T22:51:40.835Z,22.00
2023-03-31T22:54:13.010Z,25.50
2023-03-31T22:59:11.726Z,13.50
2023-03-31T23:01:40.485Z,14.00
2023-03-31T23:04:09.297Z,18.80
2023-03-31T23:06:40.083Z,14.60
2023-03-31T23:09:08.622Z,8.10
2023-03-31T23:11:37.459Z,10.70
2023-03-31T23:14:06.242Z,12.20
